createdAt,value
2022-10-22T00:04:11.225Z,95418.00
2022-10-22T00:09:39.046Z,95394.00
2022-10-22T00:15:07.870Z,95411.00
2022-10-22T00:20:35.909Z,95415.00
2022-10-22T00:26:03.880Z,95408.00
2022-10-22T00:31:31.884Z,95409.00
2022-10-22T00:36:59.708Z,95420.00
2022-10-22T00:42:31.594Z,95448.00
2022-10-22T00:48:26.288Z,95477.00
2022-10-22T00:54:04.503Z,95484.00
2022-10-22T00:59:32.893Z,95480.00
2022-10-22T01:05:00.702Z,95476.00
2022-10-22T01:10:53.757Z,95481.00
2022-10-22T01:16:59.423Z,95473.00
2022-10-22T01:22:32.806Z,95464.00
2022-10-22T01:28:55.408Z,95461.00
2022-10-22T01:34:24.783Z,95453.00
2022-10-22T01:39:53.361Z,95459.00
2022-10-22T01:45:21.178Z,95471.00
2022-10-22T01:50:57.862Z,95475.00
2022-10-22T01:56:58.940Z,95468.00
2022-10-22T02:02:29.561Z,95470.00
2022-10-22T02:08:10.069Z,95485.00
2022-10-22T02:13:44.276Z,95492.00
2022-10-22T02:19:57.870Z,95497.00
2022-10-22T02:25:32.280Z,95503.00
2022-10-22T02:31:15.430Z,95515.00
2022-10-22T02:36:48.095Z,95539.00
2022-10-22T02:42:30.087Z,95547.00
2022-10-22T02:47:58.695Z,95552.00
2022-10-22T02:53:26.412Z,95558.00
2022-10-22T02:58:54.208Z,95557.00
2022-10-22T03:04:22.581Z,95546.00
2022-10-22T03:09:50.961Z,95539.00
2022-10-22T03:15:18.744Z,95535.00
2022-10-22T03:20:46.628Z,95542.00
2022-10-22T03:26:15.242Z,95539.00
2022-10-22T03:31:43.168Z,95540.00
2022-10-22T03:37:11.748Z,95561.00
2022-10-22T03:42:41.243Z,95559.00
2022-10-22T03:48:09.152Z,95572.00
2022-10-22T03:53:37.281Z,95592.00
2022-10-22T03:59:05.305Z,95604.00
2022-10-22T04:04:33.528Z,95600.00
2022-10-22T04:10:01.269Z,95605.00
2022-10-22T04:15:29.185Z,95609.00
2022-10-22T04:20:57.056Z,95599.00
2022-10-22T04:26:25.818Z,95584.00
2022-10-22T04:31:53.807Z,95591.00
2022-10-22T04:37:21.835Z,95577.00
2022-10-22T04:42:49.625Z,95573.00
2022-10-22T04:48:17.457Z,95570.00
2022-10-22T04:53:46.302Z,95588.00
2022-10-22T04:59:14.128Z,95589.00
2022-10-22T05:04:44.554Z,95587.00
2022-10-22T05:10:12.372Z,95581.00
2022-10-22T05:15:40.184Z,95579.00
2022-10-22T05:21:14.821Z,95575.00
2022-10-22T05:26:42.632Z,95580.00
2022-10-22T05:32:10.552Z,95597.00
2022-10-22T05:37:38.689Z,95600.00
2022-10-22T05:43:06.888Z,95606.00
2022-10-22T05:48:34.882Z,95598.00
2022-10-22T05:54:06.537Z,95599.00
2022-10-22T05:59:34.441Z,95605.00
2022-10-22T06:05:02.656Z,95588.00
2022-10-22T06:10:30.674Z,95590.00
2022-10-22T06:15:58.633Z,95615.00
2022-10-22T06:21:26.407Z,95623.00
2022-10-22T06:26:54.265Z,95627.00
2022-10-22T06:32:22.072Z,95628.00
2022-10-22T06:37:49.946Z,95641.00
2022-10-22T06:43:18.035Z,95655.00
2022-10-22T06:48:57.720Z,95649.00
2022-10-22T06:54:25.496Z,95645.00
2022-10-22T06:59:53.261Z,95637.00
2022-10-22T07:05:21.251Z,95653.00
2022-10-22T07:10:49.062Z,95679.00
2022-10-22T07:16:18.564Z,95690.00
2022-10-22T07:21:46.411Z,95710.00
2022-10-22T07:27:14.710Z,95740.00
2022-10-22T07:32:42.631Z,95754.00
2022-10-22T07:38:10.488Z,95772.00
2022-10-22T07:43:38.652Z,95755.00
2022-10-22T07:49:06.450Z,95768.00
2022-10-22T07:54:34.239Z,95767.00
2022-10-22T08:00:02.129Z,95776.00
2022-10-22T08:05:40.067Z,95785.00
2022-10-22T08:11:08.191Z,95796.00
2022-10-22T08:16:36.380Z,95786.00
2022-10-22T08:22:04.263Z,95802.00
2022-10-22T08:27:32.157Z,95808.00
2022-10-22T08:32:59.965Z,95816.00
2022-10-22T08:38:27.913Z,95826.00
2022-10-22T08:44:17.250Z,95827.00
2022-10-22T08:49:45.260Z,95836.00
2022-10-22T08:55:14.630Z,95838.00
2022-10-22T09:01:00.117Z,95848.00
2022-10-22T09:06:31.856Z,95852.00
2022-10-22T09:12:01.052Z,95853.00
2022-10-22T09:18:12.959Z,95867.00
2022-10-22T09:24:10.349Z,95863.00
2022-10-22T09:29:38.692Z,95872.00
2022-10-22T09:35:14.524Z,95864.00
2022-10-22T09:40:50.976Z,95875.00
2022-10-22T09:46:23.261Z,95881.00
2022-10-22T09:51:57.679Z,95878.00
2022-10-22T09:57:26.577Z,95889.00
2022-10-22T10:03:00.211Z,95884.00
2022-10-22T10:08:27.976Z,95885.00
2022-10-22T10:14:04.265Z,95893.00
2022-10-22T10:20:15.130Z,95885.00
2022-10-22T10:26:06.751Z,95884.00
2022-10-22T10:32:38.379Z,95876.00
2022-10-22T10:38:09.102Z,95882.00
2022-10-22T10:44:33.788Z,95869.00
2022-10-22T10:50:28.680Z,95875.00
2022-10-22T10:56:27.079Z,95866.00
2022-10-22T11:02:54.244Z,95860.00
2022-10-22T11:08:39.985Z,95856.00
2022-10-22T11:14:22.656Z,95857.00
2022-10-22T11:20:00.255Z,95861.00
2022-10-22T11:25:37.159Z,95850.00
2022-10-22T11:31:14.879Z,95860.00
2022-10-22T11:36:43.877Z,95857.00
2022-10-22T11:42:43.325Z,95859.00
2022-10-22T11:48:11.158Z,95853.00
2022-10-22T11:53:39.492Z,95846.00
2022-10-22T11:59:41.735Z,95846.00
2022-10-22T12:05:22.549Z,95847.00
2022-10-22T12:11:10.907Z,95842.00
2022-10-22T12:16:56.054Z,95842.00
2022-10-22T12:22:33.902Z,95839.00
2022-10-22T12:28:01.741Z,95831.00
2022-10-22T12:33:32.750Z,95839.00
2022-10-22T12:39:03.259Z,95835.00
2022-10-22T12:44:33.261Z,95823.00
2022-10-22T12:50:04.992Z,95826.00
2022-10-22T12:55:34.265Z,95824.00
2022-10-22T13:01:02.419Z,95825.00
2022-10-22T13:06:30.273Z,95822.00
2022-10-22T13:12:05.401Z,95820.00
2022-10-22T13:17:42.411Z,95817.00
2022-10-22T13:23:23.805Z,95807.00
2022-10-22T13:28:55.233Z,95816.00
2022-10-22T13:34:26.046Z,95809.00
2022-10-22T13:39:53.809Z,95815.00
2022-10-22T13:45:21.844Z,95800.00
2022-10-22T13:50:50.507Z,95803.00
2022-10-22T13:56:21.338Z,95810.00
2022-10-22T14:01:49.098Z,95806.00
2022-10-22T14:07:17.512Z,95827.00
2022-10-22T14:12:49.445Z,95813.00
2022-10-22T14:18:29.082Z,95812.00
2022-10-22T14:23:56.780Z,95830.00
2022-10-22T14:29:24.511Z,95843.00
2022-10-22T14:34:52.295Z,95827.00
2022-10-22T14:40:21.275Z,95824.00
2022-10-22T14:45:50.689Z,95824.00
2022-10-22T14:51:21.120Z,95838.00
2022-10-22T14:56:48.903Z,95829.00
2022-10-22T15:02:16.644Z,95844.00
2022-10-22T15:07:45.688Z,95854.00
2022-10-22T15:13:14.553Z,95863.00
2022-10-22T15:18:42.719Z,95866.00
2022-10-22T15:24:10.557Z,95867.00
2022-10-22T15:29:38.276Z,95873.00
2022-10-22T15:35:08.149Z,95878.00
2022-10-22T15:40:35.927Z,95874.00
2022-10-22T15:46:16.591Z,95885.00
2022-10-22T15:51:44.992Z,95888.00
2022-10-22T15:57:12.917Z,95909.00
2022-10-22T16:02:40.842Z,95910.00
2022-10-22T16:08:08.875Z,95910.00
2022-10-22T16:13:37.627Z,95913.00
2022-10-22T16:19:06.502Z,95913.00
2022-10-22T16:24:34.313Z,95919.00
2022-10-22T16:30:02.197Z,95922.00
2022-10-22T16:35:30.924Z,95916.00
2022-10-22T16:41:20.479Z,95924.00
2022-10-22T16:46:48.358Z,95930.00
2022-10-22T16:52:16.163Z,95938.00
2022-10-22T16:57:44.171Z,95937.00
2022-10-22T17:03:12.324Z,95946.00
2022-10-22T17:08:41.365Z,95942.00
2022-10-22T17:14:12.555Z,95952.00
2022-10-22T17:19:40.413Z,95955.00
2022-10-22T17:25:17.079Z,95961.00
2022-10-22T17:30:44.848Z,95958.00
2022-10-22T17:36:13.770Z,95960.00
2022-10-22T17:41:41.771Z,95975.00
2022-10-22T17:47:10.732Z,95970.00
2022-10-22T17:52:42.218Z,95982.00
2022-10-22T17:58:10.537Z,95992.00
2022-10-22T18:03:38.463Z,95994.00
2022-10-22T18:09:10.665Z,96006.00
2022-10-22T18:14:40.991Z,96002.00
2022-10-22T18:20:09.877Z,96005.00
2022-10-22T18:25:39.616Z,96000.00
2022-10-22T18:31:10.108Z,96008.00
2022-10-22T18:36:43.107Z,95995.00
2022-10-22T18:42:11.475Z,95996.00
2022-10-22T18:47:42.919Z,95996.00
2022-10-22T18:53:13.447Z,95995.00
2022-10-22T18:58:46.239Z,95990.00
2022-10-22T19:04:14.696Z,95986.00
2022-10-22T19:09:43.777Z,95986.00
2022-10-22T19:15:11.976Z,95980.00
2022-10-22T19:20:40.045Z,95986.00
2022-10-22T19:26:13.592Z,95995.00
2022-10-22T19:31:41.846Z,95979.00
2022-10-22T19:37:12.608Z,95973.00
2022-10-22T19:42:41.141Z,95976.00
2022-10-22T19:48:09.687Z,95972.00
2022-10-22T19:53:38.998Z,95975.00
2022-10-22T19:59:07.086Z,95984.00
2022-10-22T20:04:39.408Z,95980.00
2022-10-22T20:10:08.140Z,95974.00
2022-10-22T20:15:36.800Z,95984.00
2022-10-22T20:21:13.408Z,95980.00
2022-10-22T20:26:45.336Z,95990.00
2022-10-22T20:32:13.464Z,95989.00
2022-10-22T20:37:41.518Z,95994.00
2022-10-22T20:43:11.723Z,96008.00
2022-10-22T20:48:40.412Z,96015.00
2022-10-22T20:54:09.050Z,96004.00
2022-10-22T20:59:37.007Z,96005.00
2022-10-22T21:05:05.324Z,96007.00
2022-10-22T21:10:34.240Z,96000.00
2022-10-22T21:16:09.250Z,95993.00
2022-10-22T21:21:37.584Z,95988.00
2022-10-22T21:27:07.452Z,95990.00
2022-10-22T21:32:35.414Z,95993.00
2022-10-22T21:38:05.263Z,95994.00
2022-10-22T21:43:33.465Z,95990.00
2022-10-22T21:49:03.533Z,95982.00
2022-10-22T21:54:31.355Z,95977.00
2022-10-22T21:59:59.274Z,95971.00
2022-10-22T22:05:28.402Z,95974.00
2022-10-22T22:11:06.312Z,95973.00
2022-10-22T22:16:35.282Z,95979.00
2022-10-22T22:22:03.074Z,95967.00
2022-10-22T22:27:30.840Z,95957.00
2022-10-22T22:32:58.615Z,95965.00
2022-10-22T22:38:26.419Z,95962.00
2022-10-22T22:49:27.543Z,95983.00
2022-10-22T22:54:55.351Z,95954.00
2022-10-22T23:00:23.659Z,95945.00
2022-10-22T23:05:51.552Z,95935.00
2022-10-22T23:11:21.786Z,95950.00
2022-10-22T23:16:51.955Z,95940.00
2022-10-22T23:22:19.644Z,95928.00
2022-10-22T23:27:47.369Z,95929.00
2022-10-22T23:33:16.397Z,95916.00
2022-10-22T23:38:44.578Z,95912.00
2022-10-22T23:44:12.934Z,95900.00
2022-10-22T23:49:40.775Z,95903.00
2022-10-22T23:55:08.995Z,95899.00
